Time;durP1;ratioP1;P1;durP2;ratioP2;P2;SDS_P1;SDS_P2;PMS_P1;PMS_P2;Temp;Humidity;BMP_temperature;BMP_pressure;BME280_temperature;BME280_humidity;BME280_pressure;Samples;Min_cycle;Max_cycle;Signal;HPM_P1;HPM_P2
2023/06/11 00:09:07;;;;;;;;;;;18.70;99.90;;;;;;20825570;28;19917;-75
2023/06/11 00:19:08;;;;;;;;;;;18.60;99.90;;;;;;20821773;28;19955;-76
2023/06/11 00:29:09;;;;;;;;;;;18.30;99.90;;;;;;20835940;28;20001;-77
2023/06/11 00:39:10;;;;;;;;;;;18.30;99.90;;;;;;20835664;28;19936;-76
2023/06/11 00:49:11;;;;;;;;;;;18.40;99.90;;;;;;20815829;28;20321;-76
2023/06/11 00:59:13;;;;;;;;;;;18.30;99.90;;;;;;20834644;28;19944;-76
2023/06/11 01:09:13;;;;;;;;;;;18.20;99.90;;;;;;20833625;28;19917;-76
2023/06/11 01:19:33;;;;;;;;;;;17.80;99.90;;;;;;20833122;28;19956;-76
2023/06/11 01:29:38;;;;;;;;;;;18.10;99.90;;;;;;20830939;28;19963;-76
2023/06/11 01:39:45;;;;;;;;;;;18.00;99.90;;;;;;20832391;28;19917;-75
2023/06/11 01:49:57;;;;;;;;;;;17.60;99.90;;;;;;20830115;28;19963;-76
2023/06/11 01:59:58;;;;;;;;;;;17.50;99.90;;;;;;20849680;28;19913;-76
2023/06/11 02:09:59;;;;;;;;;;;17.50;99.90;;;;;;20894910;28;20288;-76
2023/06/11 02:20:00;;;;;;;;;;;17.40;99.90;;;;;;20867366;28;20011;-76
2023/06/11 02:30:00;;;;;;;;;;;16.70;99.90;;;;;;20867195;28;19917;-76
2023/06/11 02:40:01;;;;;;;;;;;16.60;99.90;;;;;;20856941;28;19975;-76
2023/06/11 02:50:02;;;;;;;;;;;16.80;99.90;;;;;;20863917;28;19924;-76
2023/06/11 03:00:05;;;;;;;;;;;16.70;99.90;;;;;;20824914;28;21325;-76
2023/06/11 03:10:06;;;;;;;;;;;16.90;99.90;;;;;;20824933;28;19917;-76
2023/06/11 03:20:08;;;;;;;;;;;16.90;99.90;;;;;;20807957;28;19964;-77
2023/06/11 03:30:10;;;;;;;;;;;16.80;99.90;;;;;;20821610;28;19933;-77
2023/06/11 03:40:12;;;;;;;;;;;16.60;99.90;;;;;;20821758;28;20291;-76
2023/06/11 03:50:13;;;;;;;;;;;16.50;99.90;;;;;;20821464;28;19957;-76
2023/06/11 04:00:15;;;;;;;;;;;15.80;99.90;;;;;;20849138;28;19935;-76
2023/06/11 04:10:16;;;;;;;;;;;15.90;99.90;;;;;;20901287;28;20422;-76
2023/06/11 04:20:17;;;;;;;;;;;16.20;99.90;;;;;;20889717;28;19972;-76
2023/06/11 04:30:18;;;;;;;;;;;16.40;99.90;;;;;;20817309;28;19924;-76
2023/06/11 04:40:23;;;;;;;;;;;16.60;99.90;;;;;;20816687;28;19921;-77
2023/06/11 04:50:24;;;;;;;;;;;16.40;99.90;;;;;;20816168;28;20007;-77
2023/06/11 05:00:29;;;;;;;;;;;16.70;99.90;;;;;;20831647;28;20003;-76
2023/06/11 05:10:31;;;;;;;;;;;17.20;99.90;;;;;;20830000;28;19921;-76
2023/06/11 05:20:32;;;;;;;;;;;17.60;99.90;;;;;;20830227;28;19951;-77
2023/06/11 05:30:36;;;;;;;;;;;17.90;99.90;;;;;;20830863;28;20307;-76
2023/06/11 05:40:37;;;;;;;;;;;18.30;99.90;;;;;;20828391;28;20347;-77
2023/06/11 05:50:38;;;;;;;;;;;18.80;99.90;;;;;;20827700;28;19917;-77
2023/06/11 06:00:42;;;;;;;;;;;19.30;99.90;;;;;;20826998;28;20386;-76
2023/06/11 06:10:43;;;;;;;;;;;19.50;99.90;;;;;;20809832;28;20339;-77
2023/06/11 06:20:44;;;;;;;;;;;19.70;99.90;;;;;;20808989;28;19913;-78
2023/06/11 06:30:45;;;;;;;;;;;19.90;99.90;;;;;;20824759;28;19917;-78
2023/06/11 06:40:46;;;;;;;;;;;20.60;99.90;;;;;;20844612;28;20380;-78
2023/06/11 06:50:47;;;;;;;;;;;20.90;99.90;;;;;;20857013;28;20387;-75
2023/06/11 07:00:48;;;;;;;;;;;21.30;99.90;;;;;;20856221;28;19999;-75
2023/06/11 07:10:51;;;;;;;;;;;22.00;99.90;;;;;;20856361;28;19917;-75
2023/06/11 07:20:57;;;;;;;;;;;22.60;99.90;;;;;;20858905;28;19913;-75
2023/06/11 07:30:58;;;;;;;;;;;23.00;99.90;;;;;;20810289;28;19943;-75
2023/06/11 07:41:01;;;;;;;;;;;23.50;99.90;;;;;;20842111;28;19944;-75
2023/06/11 07:51:02;;;;;;;;;;;23.70;99.90;;;;;;20833476;28;19971;-75
2023/06/11 08:01:03;;;;;;;;;;;24.20;99.90;;;;;;20838637;28;19917;-75
2023/06/11 08:11:04;;;;;;;;;;;24.90;99.90;;;;;;20828255;28;19928;-76
2023/06/11 08:21:05;;;;;;;;;;;25.30;99.90;;;;;;20863515;28;20330;-76
2023/06/11 08:31:06;;;;;;;;;;;25.70;99.90;;;;;;20878892;28;19971;-75
2023/06/11 08:41:07;;;;;;;;;;;26.00;99.90;;;;;;20874385;28;20033;-75
2023/06/11 08:51:11;;;;;;;;;;;26.40;99.90;;;;;;20861774;28;19961;-74
2023/06/11 09:01:11;;;;;;;;;;;26.60;99.90;;;;;;20845594;28;20007;-74
2023/06/11 09:11:14;;;;;;;;;;;26.70;99.90;;;;;;20831003;28;20010;-73
2023/06/11 09:21:15;;;;;;;;;;;27.10;99.90;;;;;;20831643;28;19920;-75
2023/06/11 09:31:18;;;;;;;;;;;28.10;99.90;;;;;;20862125;28;20376;-74
2023/06/11 09:41:18;;;;;;;;;;;27.80;99.90;;;;;;20849161;28;20406;-76
2023/06/11 09:51:23;;;;;;;;;;;28.40;99.90;;;;;;20863421;28;19952;-75
2023/06/11 10:01:24;;;;;;;;;;;29.30;98.80;;;;;;20910436;28;20272;-75
2023/06/11 10:11:25;;;;;;;;;;;28.60;98.60;;;;;;20910306;28;19916;-74
2023/06/11 10:21:32;;;;;;;;;;;29.10;98.70;;;;;;20857879;28;19988;-75
2023/06/11 10:31:39;;;;;;;;;;;29.50;97.00;;;;;;20891724;28;19925;-76
2023/06/11 10:41:41;;;;;;;;;;;30.00;95.50;;;;;;20902653;28;20415;-77
2023/06/11 10:51:42;;;;;;;;;;;30.20;96.70;;;;;;20824510;28;19921;-76
2023/06/11 11:01:42;;;;;;;;;;;30.70;93.30;;;;;;20824257;28;19913;-77
2023/06/11 11:11:43;;;;;;;;;;;30.30;92.70;;;;;;20822931;28;20042;-77
2023/06/11 11:21:50;;;;;;;;;;;30.90;92.50;;;;;;20822888;28;19971;-76
2023/06/11 11:31:51;;;;;;;;;;;30.80;92.40;;;;;;20838994;28;19935;-77
2023/06/11 11:41:52;;;;;;;;;;;31.20;91.60;;;;;;20817460;28;20011;-75
2023/06/11 11:51:57;;;;;;;;;;;31.60;90.50;;;;;;20844857;28;19917;-75
2023/06/11 12:01:59;;;;;;;;;;;30.60;89.80;;;;;;20851868;28;19913;-76
2023/06/11 12:11:59;;;;;;;;;;;31.50;90.00;;;;;;20903710;28;20296;-75
2023/06/11 12:22:00;;;;;;;;;;;31.70;89.50;;;;;;20901716;28;19967;-74
2023/06/11 12:32:01;;;;;;;;;;;31.60;87.10;;;;;;20870906;28;20176;-74
2023/06/11 12:42:01;;;;;;;;;;;31.40;88.40;;;;;;20916373;28;19916;-75
2023/06/11 12:52:02;;;;;;;;;;;31.10;88.50;;;;;;20852564;28;20305;-74
2023/06/11 13:02:03;;;;;;;;;;;31.40;88.90;;;;;;20832934;28;19948;-73
2023/06/11 13:12:04;;;;;;;;;;;31.60;87.00;;;;;;20830774;28;20007;-74
2023/06/11 13:22:07;;;;;;;;;;;31.60;87.70;;;;;;20830794;28;19944;-74
2023/06/11 13:32:07;;;;;;;;;;;30.90;88.60;;;;;;20829387;28;19920;-74
2023/06/11 13:42:09;;;;;;;;;;;31.30;87.00;;;;;;20829659;28;20048;-73
2023/06/11 13:52:09;;;;;;;;;;;30.40;89.70;;;;;;20847141;28;19952;-73
2023/06/11 14:02:10;;;;;;;;;;;30.40;89.40;;;;;;20901985;28;19959;-73
2023/06/11 14:12:11;;;;;;;;;;;31.40;87.00;;;;;;20906774;28;19994;-75
2023/06/11 14:22:11;;;;;;;;;;;30.80;88.20;;;;;;20836488;28;20343;-74
2023/06/11 14:32:12;;;;;;;;;;;31.00;85.30;;;;;;20826171;28;19917;-74
2023/06/11 14:42:13;;;;;;;;;;;31.40;87.10;;;;;;20864768;28;19917;-75
2023/06/11 14:52:13;;;;;;;;;;;31.00;87.10;;;;;;20860860;28;19927;-74
2023/06/11 15:02:14;;;;;;;;;;;30.60;86.60;;;;;;20859653;28;19913;-74
2023/06/11 15:12:15;;;;;;;;;;;30.40;84.70;;;;;;20847100;28;19924;-76
2023/06/11 15:22:18;;;;;;;;;;;30.40;85.90;;;;;;20847764;28;19945;-77
2023/06/11 15:32:20;;;;;;;;;;;30.20;85.00;;;;;;20842416;28;20411;-78
2023/06/11 15:42:20;;;;;;;;;;;29.90;86.30;;;;;;20822394;28;19925;-77
2023/06/11 15:52:21;;;;;;;;;;;29.40;84.30;;;;;;20825093;28;19963;-79
2023/06/11 16:02:24;;;;;;;;;;;29.40;85.70;;;;;;20837358;28;20329;-77
2023/06/11 16:12:25;;;;;;;;;;;28.90;85.60;;;;;;20837305;28;20313;-77
2023/06/11 16:22:26;;;;;;;;;;;29.00;85.80;;;;;;20885715;28;19913;-77
2023/06/11 16:32:26;;;;;;;;;;;28.60;85.20;;;;;;20918318;28;19917;-76
2023/06/11 16:42:27;;;;;;;;;;;28.80;85.30;;;;;;20876108;28;19917;-77
2023/06/11 16:52:29;;;;;;;;;;;28.30;86.50;;;;;;20837256;28;19933;-76
2023/06/11 17:02:31;;;;;;;;;;;28.00;86.50;;;;;;20831686;28;20429;-75
2023/06/11 17:12:32;;;;;;;;;;;27.70;88.10;;;;;;20871437;28;19989;-75
2023/06/11 17:22:33;;;;;;;;;;;27.70;86.20;;;;;;20850065;28;20438;-76
2023/06/11 17:32:35;;;;;;;;;;;27.50;86.20;;;;;;20874918;28;20311;-75
2023/06/11 17:42:40;;;;;;;;;;;27.30;86.50;;;;;;20851427;28;19917;-75
2023/06/11 17:52:42;;;;;;;;;;;27.20;86.00;;;;;;20852154;28;19917;-75
2023/06/11 18:02:43;;;;;;;;;;;27.60;85.40;;;;;;20859008;28;19917;-75
2023/06/11 18:12:44;;;;;;;;;;;28.00;82.90;;;;;;20898332;28;19917;-75
2023/06/11 18:22:45;;;;;;;;;;;28.90;80.90;;;;;;20848647;28;19912;-78
2023/06/11 18:32:45;;;;;;;;;;;29.40;79.50;;;;;;20867485;28;19925;-77
2023/06/11 18:42:46;;;;;;;;;;;29.10;80.00;;;;;;20871134;28;20368;-76
2023/06/11 18:52:47;;;;;;;;;;;26.50;84.00;;;;;;20897872;28;20323;-77
2023/06/11 19:02:47;;;;;;;;;;;25.40;87.20;;;;;;20823904;28;19913;-77
2023/06/11 19:12:50;;;;;;;;;;;24.70;88.00;;;;;;20857172;28;19920;-76
2023/06/11 19:22:51;;;;;;;;;;;24.30;90.00;;;;;;20882230;28;20368;-77
2023/06/11 19:32:52;;;;;;;;;;;23.90;90.70;;;;;;20863431;28;19967;-76
2023/06/11 19:42:52;;;;;;;;;;;23.40;91.70;;;;;;20874335;28;19924;-76
2023/06/11 19:52:53;;;;;;;;;;;23.20;92.00;;;;;;20843224;28;19921;-76
2023/06/11 20:02:54;;;;;;;;;;;22.90;92.60;;;;;;20879577;28;20043;-77
2023/06/11 20:12:55;;;;;;;;;;;22.90;92.60;;;;;;20906198;28;19986;-75
2023/06/11 20:22:55;;;;;;;;;;;22.60;93.10;;;;;;20905934;28;19973;-76
2023/06/11 20:32:57;;;;;;;;;;;21.90;94.90;;;;;;20836057;28;19917;-76
2023/06/11 20:42:57;;;;;;;;;;;21.60;96.20;;;;;;20835080;28;19917;-75
2023/06/11 20:52:58;;;;;;;;;;;21.10;97.10;;;;;;20841911;28;20388;-75
2023/06/11 21:03:01;;;;;;;;;;;20.50;98.80;;;;;;20837145;28;19949;-75
2023/06/11 21:13:01;;;;;;;;;;;19.90;99.90;;;;;;20840763;28;19917;-75
2023/06/11 21:23:02;;;;;;;;;;;19.50;99.90;;;;;;20849201;28;20023;-76
2023/06/11 21:33:03;;;;;;;;;;;19.30;99.90;;;;;;20850491;28;20443;-76
2023/06/11 21:43:03;;;;;;;;;;;19.40;99.90;;;;;;20835004;28;19920;-76
2023/06/11 21:53:07;;;;;;;;;;;19.80;99.90;;;;;;20831676;28;19917;-75
2023/06/11 22:03:08;;;;;;;;;;;19.70;99.90;;;;;;20831440;28;19913;-76
2023/06/11 22:13:08;;;;;;;;;;;19.40;99.90;;;;;;20832637;28;19916;-76
2023/06/11 22:23:10;;;;;;;;;;;19.40;99.90;;;;;;20880124;28;20396;-76
2023/06/11 22:33:11;;;;;;;;;;;19.20;99.90;;;;;;20834188;28;20499;-75
2023/06/11 22:43:11;;;;;;;;;;;19.10;99.90;;;;;;20844456;28;19979;-76
2023/06/11 22:53:13;;;;;;;;;;;18.90;99.90;;;;;;20832898;28;19963;-76
2023/06/11 23:03:14;;;;;;;;;;;18.90;99.90;;;;;;20828254;28;20299;-76
2023/06/11 23:13:15;;;;;;;;;;;18.60;99.90;;;;;;20840490;28;20011;-76
2023/06/11 23:23:15;;;;;;;;;;;18.60;99.90;;;;;;20904195;28;19996;-76
2023/06/11 23:33:16;;;;;;;;;;;18.60;99.90;;;;;;20825215;28;19917;-76
2023/06/11 23:43:17;;;;;;;;;;;18.70;99.90;;;;;;20824810;28;19917;-75
2023/06/11 23:53:17;;;;;;;;;;;18.50;99.90;;;;;;20824692;28;19937;-75
